Time;durP1;ratioP1;P1;durP2;ratioP2;P2;SDS_P1;SDS_P2;PMS_P1;PMS_P2;Temp;Humidity;BMP_temperature;BMP_pressure;BME280_temperature;BME280_humidity;BME280_pressure;Samples;Min_cycle;Max_cycle;Signal;HPM_P1;HPM_P2
2021/12/10 00:01:19;;;;;;;5.60;4.13;;;7.30;29.30;;;;;;5093157;28;20206;-71
2021/12/10 00:03:50;;;;;;;4.53;4.00;;;7.40;99.90;;;;;;5092291;28;20279;-71
2021/12/10 00:06:21;;;;;;;8.27;4.43;;;7.50;99.90;;;;;;5092989;28;20208;-71
2021/12/10 00:08:59;;;;;;;5.40;4.13;;;7.50;99.90;;;;;;5092712;28;20201;-71
2021/12/10 00:11:31;;;;;;;8.97;5.40;;;7.50;99.90;;;;;;5092637;28;20214;-71
2021/12/10 00:13:58;;;;;;;6.10;4.40;;;7.50;1.00;;;;;;5088565;28;20679;-71
2021/12/10 00:16:25;;;;;;;7.93;5.57;;;7.60;1.00;;;;;;5072640;28;20202;-71
2021/12/10 00:18:57;;;;;;;6.43;4.80;;;7.60;1.00;;;;;;5072318;28;20293;-68
2021/12/10 00:21:29;;;;;;;6.83;5.03;;;7.70;1.00;;;;;;5072586;28;20666;-69
2021/12/10 00:23:57;;;;;;;5.57;4.93;;;7.70;1.00;;;;;;5071847;28;20234;-69
2021/12/10 00:26:24;;;;;;;5.63;4.97;;;7.70;1.00;;;;;;5072205;28;20252;-70
2021/12/10 00:29:01;;;;;;;6.60;4.23;;;7.80;1.00;;;;;;5072090;28;20206;-69
2021/12/10 00:31:44;;;;;;;4.43;3.53;;;7.90;72.10;;;;;;5072319;28;20575;-69
2021/12/10 00:34:21;;;;;;;3.87;1.80;;;8.20;99.90;;;;;;5072097;28;20658;-69
2021/12/10 00:36:51;;;;;;;2.07;1.43;;;8.50;1.00;;;;;;5071717;28;20202;-69
2021/12/10 00:39:23;;;;;;;0.63;0.60;;;8.90;1.00;;;;;;5072371;28;20198;-70
2021/12/10 00:41:52;;;;;;;0.57;0.30;;;9.60;1.00;;;;;;5071180;28;20267;-69
2021/12/10 00:44:19;;;;;;;0.77;0.30;;;9.90;1.00;;;;;;5072007;28;20256;-69
2021/12/10 00:46:46;;;;;;;0.50;0.30;;;10.10;4.60;;;;;;5071878;28;20198;-69
2021/12/10 00:49:14;;;;;;;0.60;0.40;;;10.30;50.50;;;;;;5072241;28;20203;-69
2021/12/10 00:51:42;;;;;;;1.13;0.57;;;10.40;84.60;;;;;;5071721;28;20252;-69
2021/12/10 00:54:11;;;;;;;0.43;0.30;;;10.50;93.30;;;;;;5071827;28;20210;-69
2021/12/10 00:56:41;;;;;;;0.20;0.10;;;10.60;99.90;;;;;;5071367;28;20621;-69
2021/12/10 00:59:09;;;;;;;0.13;0.13;;;10.70;99.90;;;;;;5071796;28;20292;-70
2021/12/10 01:01:36;;;;;;;0.23;0.20;;;10.80;99.90;;;;;;5072202;28;20255;-70
2021/12/10 01:04:08;;;;;;;0.30;0.20;;;10.90;99.90;;;;;;5072020;28;20238;-70
2021/12/10 01:06:35;;;;;;;0.20;0.20;;;10.90;99.90;;;;;;5071980;28;20202;-70
2021/12/10 01:09:11;;;;;;;0.30;0.20;;;10.90;99.90;;;;;;5071611;28;20654;-70
2021/12/10 01:11:42;;;;;;;0.70;0.20;;;10.90;99.90;;;;;;5071685;28;20241;-70
2021/12/10 01:14:17;;;;;;;0.23;0.20;;;11.00;99.90;;;;;;5071725;28;20637;-71
2021/12/10 01:25:13;;;;;;;0.30;0.17;;;11.10;99.90;;;;;;5071184;28;20208;-71
2021/12/10 01:27:44;;;;;;;0.20;0.20;;;11.20;99.90;;;;;;5071019;28;20229;-70
2021/12/10 01:30:16;;;;;;;0.63;0.20;;;11.20;99.90;;;;;;5071043;28;20646;-71
2021/12/10 01:32:54;;;;;;;0.20;0.20;;;11.10;99.90;;;;;;5070920;28;20209;-71
2021/12/10 01:35:25;;;;;;;0.30;0.30;;;11.10;99.90;;;;;;5071162;28;20247;-70
2021/12/10 01:37:54;;;;;;;0.30;0.30;;;11.20;99.90;;;;;;5070689;28;20197;-71
2021/12/10 01:40:25;;;;;;;0.40;0.23;;;11.20;99.90;;;;;;5070759;28;20213;-70
2021/12/10 01:43:04;;;;;;;0.20;0.20;;;11.20;99.90;;;;;;5070533;28;20230;-70
2021/12/10 01:45:36;;;;;;;0.47;0.20;;;11.30;99.90;;;;;;5071276;28;20613;-70
2021/12/10 01:48:07;;;;;;;0.97;0.30;;;11.30;99.90;;;;;;5071662;28;20206;-70
2021/12/10 01:50:35;;;;;;;0.77;0.27;;;11.30;99.90;;;;;;5071364;28;20202;-70
2021/12/10 01:53:06;;;;;;;0.30;0.20;;;11.40;99.90;;;;;;5070589;28;20206;-70
2021/12/10 01:55:36;;;;;;;0.33;0.20;;;11.40;99.90;;;;;;5071409;28;20206;-74
2021/12/10 01:58:09;;;;;;;0.13;0.10;;;11.30;99.90;;;;;;5070943;28;20206;-74
2021/12/10 02:00:40;;;;;;;1.70;0.23;;;11.30;99.90;;;;;;5071267;28;20198;-72
2021/12/10 02:03:07;;;;;;;1.13;0.30;;;11.40;99.90;;;;;;5070834;28;20271;-71
2021/12/10 02:05:35;;;;;;;0.87;0.23;;;11.40;99.90;;;;;;5070844;28;20673;-72
2021/12/10 02:08:03;;;;;;;0.20;0.20;;;11.50;99.90;;;;;;5070447;28;20255;-70
2021/12/10 02:10:31;;;;;;;0.47;0.40;;;11.50;99.90;;;;;;5070777;28;20210;-69
2021/12/10 02:12:59;;;;;;;1.30;0.50;;;11.50;99.90;;;;;;5070537;28;20210;-70
2021/12/10 02:15:29;;;;;;;1.80;0.40;;;11.50;99.90;;;;;;5070846;28;20275;-70
2021/12/10 02:17:58;;;;;;;0.40;0.30;;;11.50;99.90;;;;;;5070122;28;20210;-70
2021/12/10 02:20:28;;;;;;;1.17;0.50;;;11.60;99.90;;;;;;5070837;28;20202;-70
2021/12/10 02:22:56;;;;;;;1.60;0.50;;;11.60;99.90;;;;;;5070237;28;20237;-71
2021/12/10 02:25:26;;;;;;;2.37;0.53;;;11.70;99.90;;;;;;5070675;28;20199;-70
2021/12/10 02:27:56;;;;;;;1.20;0.40;;;11.70;99.90;;;;;;5071756;28;20206;-70
2021/12/10 02:30:24;;;;;;;1.23;0.40;;;11.60;99.90;;;;;;5074773;28;20206;-68
2021/12/10 02:32:52;;;;;;;1.20;0.70;;;11.70;99.90;;;;;;5074283;28;20206;-69
2021/12/10 02:35:19;;;;;;;0.97;0.57;;;11.70;99.90;;;;;;5074563;28;20251;-69
2021/12/10 02:37:48;;;;;;;2.10;0.60;;;11.70;99.90;;;;;;5074097;28;20202;-70
2021/12/10 02:40:20;;;;;;;2.07;0.60;;;11.70;99.90;;;;;;5074272;28;20255;-71
2021/12/10 02:42:49;;;;;;;3.87;1.00;;;11.70;99.90;;;;;;5073930;28;20720;-70
2021/12/10 02:45:19;;;;;;;1.50;0.67;;;11.70;50.60;;;;;;5074297;28;20575;-71
2021/12/10 02:47:47;;;;;;;2.67;0.77;;;11.70;1.00;;;;;;5074286;28;20248;-71
2021/12/10 02:50:19;;;;;;;1.03;0.50;;;11.70;1.00;;;;;;5074472;28;20206;-70
2021/12/10 02:52:46;;;;;;;1.87;0.73;;;11.70;1.00;;;;;;5073673;28;20260;-69
2021/12/10 02:55:15;;;;;;;1.20;0.43;;;11.70;1.00;;;;;;5074271;28;20260;-72
2021/12/10 02:57:44;;;;;;;3.13;0.80;;;11.70;1.00;;;;;;5073618;28;20206;-71
2021/12/10 03:00:16;;;;;;;6.03;1.10;;;11.60;1.00;;;;;;5074270;28;20251;-71
2021/12/10 03:02:43;;;;;;;2.07;0.50;;;11.60;1.00;;;;;;5073628;28;20202;-71
2021/12/10 03:05:10;;;;;;;1.57;0.40;;;11.60;1.00;;;;;;5073615;28;20267;-71
2021/12/10 03:07:39;;;;;;;2.20;0.53;;;11.50;1.00;;;;;;5073986;28;20206;-71
2021/12/10 03:10:09;;;;;;;3.73;0.90;;;11.50;1.00;;;;;;5074036;28;20206;-71
2021/12/10 03:12:36;;;;;;;3.03;0.40;;;11.50;1.00;;;;;;5080178;28;20206;-72
2021/12/10 03:15:06;;;;;;;1.13;0.60;;;11.40;5.50;;;;;;5074314;28;20206;-71
2021/12/10 03:17:34;;;;;;;1.00;0.60;;;11.40;46.20;;;;;;5074233;28;20203;-71
2021/12/10 03:20:05;;;;;;;1.93;0.63;;;11.50;88.90;;;;;;5073192;28;20734;-71
2021/12/10 03:22:32;;;;;;;1.27;0.70;;;11.40;99.60;;;;;;5074002;28;20251;-71
2021/12/10 03:24:59;;;;;;;2.13;0.50;;;11.50;99.90;;;;;;5073165;28;20812;-69
2021/12/10 03:27:26;;;;;;;0.60;0.30;;;11.40;99.90;;;;;;5073659;28;20751;-69
2021/12/10 03:29:54;;;;;;;0.43;0.30;;;11.50;99.90;;;;;;5073067;28;20262;-69
2021/12/10 03:32:28;;;;;;;3.10;0.37;;;11.50;99.90;;;;;;5073623;28;20233;-69
2021/12/10 03:34:56;;;;;;;0.73;0.43;;;11.50;99.90;;;;;;5073045;28;20206;-69
2021/12/10 03:37:23;;;;;;;0.30;0.20;;;11.50;99.90;;;;;;5073346;28;20210;-70
2021/12/10 03:39:52;;;;;;;1.83;0.30;;;11.60;99.90;;;;;;5072123;28;20202;-70
2021/12/10 03:42:20;;;;;;;0.20;0.20;;;11.70;99.90;;;;;;5073294;28;20625;-69
2021/12/10 03:44:47;;;;;;;0.40;0.20;;;11.70;99.90;;;;;;5072981;28;20277;-71
2021/12/10 03:47:15;;;;;;;0.70;0.20;;;11.70;84.10;;;;;;5073311;28;20731;-70
2021/12/10 03:49:43;;;;;;;0.50;0.30;;;11.70;39.90;;;;;;5072601;28;20610;-71
2021/12/10 03:52:10;;;;;;;1.80;0.20;;;11.70;21.20;;;;;;5073189;28;20661;-67
2021/12/10 03:54:39;;;;;;;1.10;0.30;;;11.70;1.00;;;;;;5073071;28;20214;-68
2021/12/10 03:57:07;;;;;;;0.30;0.30;;;11.70;1.00;;;;;;5073249;28;20733;-68
2021/12/10 03:59:36;;;;;;;1.40;0.60;;;11.80;1.00;;;;;;5073428;28;20626;-68
2021/12/10 04:02:05;;;;;;;0.30;0.20;;;11.80;1.00;;;;;;5073199;28;20275;-67
2021/12/10 04:04:36;;;;;;;3.30;0.30;;;11.80;1.00;;;;;;5072879;28;20584;-69
2021/12/10 04:07:10;;;;;;;1.27;0.53;;;11.80;1.00;;;;;;5072810;28;20202;-69
2021/12/10 04:09:37;;;;;;;1.93;0.87;;;11.80;1.00;;;;;;5072810;28;20661;-70
2021/12/10 04:12:07;;;;;;;0.30;0.30;;;11.90;1.00;;;;;;5073005;28;20232;-70
2021/12/10 04:14:34;;;;;;;0.83;0.20;;;11.90;1.00;;;;;;5073198;28;20198;-70
2021/12/10 04:17:01;;;;;;;0.30;0.30;;;11.90;1.00;;;;;;5072248;28;20263;-72
2021/12/10 04:19:31;;;;;;;1.13;0.20;;;12.00;1.00;;;;;;5072468;28;20710;-72
2021/12/10 04:22:00;;;;;;;0.67;0.20;;;12.00;1.00;;;;;;5072217;28;20947;-72
2021/12/10 04:24:33;;;;;;;0.60;0.30;;;12.00;1.00;;;;;;5072508;28;20229;-72
2021/12/10 04:27:01;;;;;;;0.33;0.20;;;12.00;1.00;;;;;;5072139;28;20210;-72
2021/12/10 04:29:28;;;;;;;0.63;0.63;;;12.00;1.00;;;;;;5072434;28;20202;-72
2021/12/10 04:31:57;;;;;;;0.27;0.20;;;12.00;1.00;;;;;;5071982;28;20205;-72
2021/12/10 04:34:24;;;;;;;0.10;0.10;;;12.10;1.00;;;;;;5072295;28;20248;-72
2021/12/10 04:36:53;;;;;;;0.10;0.10;;;12.20;1.00;;;;;;5071986;28;20203;-73
2021/12/10 04:39:20;;;;;;;0.47;0.20;;;12.20;1.00;;;;;;5072343;28;20207;-73
2021/12/10 04:41:49;;;;;;;0.20;0.20;;;12.20;1.00;;;;;;5071494;28;20214;-72
2021/12/10 04:44:16;;;;;;;0.40;0.30;;;12.20;1.00;;;;;;5072315;28;20234;-73
2021/12/10 04:46:43;;;;;;;0.40;0.20;;;12.30;99.90;;;;;;5071678;28;20198;-74
2021/12/10 04:49:13;;;;;;;1.50;0.27;;;12.30;1.00;;;;;;5072161;28;20244;-73
2021/12/10 04:51:42;;;;;;;0.50;0.30;;;12.30;69.20;;;;;;5071429;28;20233;-74
2021/12/10 04:54:10;;;;;;;0.80;0.27;;;12.20;65.70;;;;;;5071703;28;20264;-71
2021/12/10 04:56:40;;;;;;;1.30;0.30;;;12.10;29.20;;;;;;5072227;28;20252;-72
2021/12/10 04:59:13;;;;;;;1.97;0.50;;;12.10;1.00;;;;;;5071865;28;21037;-73
2021/12/10 05:01:41;;;;;;;0.67;0.30;;;12.10;1.00;;;;;;5071282;28;20214;-72
2021/12/10 05:04:09;;;;;;;0.60;0.50;;;12.10;1.00;;;;;;5071635;28;20638;-73
2021/12/10 05:06:37;;;;;;;1.70;0.57;;;12.20;1.00;;;;;;5071655;28;20719;-72
2021/12/10 05:09:06;;;;;;;4.70;0.60;;;12.10;1.00;;;;;;5072167;28;20202;-70
2021/12/10 05:11:33;;;;;;;3.77;1.00;;;12.10;1.00;;;;;;5072157;28;20198;-71
2021/12/10 05:14:01;;;;;;;4.47;1.40;;;12.10;1.00;;;;;;5071393;28;20273;-74
2021/12/10 05:16:29;;;;;;;2.73;0.77;;;12.10;1.00;;;;;;5071441;28;20197;-71
2021/12/10 05:18:59;;;;;;;2.80;1.37;;;12.10;1.00;;;;;;5071024;28;20670;-72
2021/12/10 05:21:28;;;;;;;2.53;0.50;;;11.80;1.00;;;;;;5071455;28;20224;-71
2021/12/10 05:23:56;;;;;;;2.63;0.50;;;11.70;1.00;;;;;;5071157;28;20226;-73
2021/12/10 05:26:23;;;;;;;3.53;0.80;;;11.60;1.00;;;;;;5071562;28;20206;-72
2021/12/10 05:28:50;;;;;;;1.67;1.33;;;11.50;1.00;;;;;;5070887;28;20213;-72
2021/12/10 05:31:17;;;;;;;2.57;1.00;;;11.50;1.00;;;;;;5071065;28;20661;-75
2021/12/10 05:33:46;;;;;;;3.10;1.00;;;11.40;1.00;;;;;;5070941;28;20198;-74
2021/12/10 05:36:13;;;;;;;3.70;2.10;;;11.40;1.00;;;;;;5071307;28;20256;-73
2021/12/10 05:38:40;;;;;;;3.80;1.40;;;11.30;1.00;;;;;;5070873;28;20256;-73
2021/12/10 05:41:10;;;;;;;3.33;1.03;;;11.30;1.00;;;;;;5071006;28;20252;-73
2021/12/10 05:43:38;;;;;;;8.27;1.63;;;11.30;1.00;;;;;;5071401;28;20209;-72
2021/12/10 05:46:06;;;;;;;6.53;1.60;;;11.20;1.00;;;;;;5071214;28;20202;-72
2021/12/10 05:48:33;;;;;;;9.20;2.57;;;11.20;1.00;;;;;;5071311;28;20206;-75
2021/12/10 05:51:02;;;;;;;6.47;1.37;;;11.30;1.00;;;;;;5070960;28;20202;-74
2021/12/10 05:53:30;;;;;;;6.67;2.40;;;11.20;1.00;;;;;;5071167;28;20202;-76
2021/12/10 05:55:57;;;;;;;8.97;2.50;;;11.20;1.00;;;;;;5070173;28;20263;-76
2021/12/10 05:58:24;;;;;;;8.77;2.07;;;11.30;1.00;;;;;;5070366;28;20356;-73
2021/12/10 06:00:55;;;;;;;8.50;2.63;;;11.30;1.00;;;;;;5070404;28;20256;-75
2021/12/10 06:03:23;;;;;;;7.50;2.87;;;11.30;1.00;;;;;;5069678;28;20240;-74
2021/12/10 06:05:50;;;;;;;8.70;2.27;;;11.40;1.00;;;;;;5070331;28;20267;-73
2021/12/10 06:08:19;;;;;;;8.27;2.70;;;11.30;1.00;;;;;;5070701;28;20670;-74
2021/12/10 06:10:48;;;;;;;8.83;3.93;;;11.20;1.00;;;;;;5070387;28;20247;-72
2021/12/10 06:13:15;;;;;;;14.77;4.60;;;11.10;1.00;;;;;;5070760;28;20275;-72
2021/12/10 06:15:42;;;;;;;18.93;4.63;;;11.20;1.00;;;;;;5070319;28;20252;-73
2021/12/10 06:18:10;;;;;;;8.73;3.40;;;11.20;1.00;;;;;;5070967;28;20251;-71
2021/12/10 06:20:53;;;;;;;19.37;6.27;;;10.90;1.00;;;;;;5070265;28;20263;-70
2021/12/10 06:23:22;;;;;;;14.87;4.53;;;10.90;1.00;;;;;;5070548;28;20275;-72
2021/12/10 06:25:49;;;;;;;13.17;5.57;;;10.90;1.00;;;;;;5069900;28;20748;-71
2021/12/10 06:28:17;;;;;;;15.63;3.40;;;10.70;1.00;;;;;;5070639;28;20209;-75
2021/12/10 06:30:46;;;;;;;9.13;3.50;;;10.70;1.00;;;;;;5070607;28;20202;-74
2021/12/10 06:33:16;;;;;;;13.37;3.63;;;10.60;1.00;;;;;;5070463;28;20734;-72
2021/12/10 06:35:45;;;;;;;10.03;2.97;;;10.70;1.00;;;;;;5070384;28;20206;-74
2021/12/10 06:38:12;;;;;;;18.20;5.83;;;10.70;1.00;;;;;;5070523;28;20237;-74
2021/12/10 06:40:43;;;;;;;17.97;5.07;;;10.70;1.00;;;;;;5069736;28;20263;-74
2021/12/10 06:43:10;;;;;;;22.17;4.03;;;10.70;1.00;;;;;;5070580;28;20264;-72
2021/12/10 06:45:39;;;;;;;13.73;4.63;;;10.60;1.00;;;;;;5070370;28;20230;-73
2021/12/10 06:48:09;;;;;;;20.63;4.33;;;10.60;1.00;;;;;;5070490;28;20206;-73
2021/12/10 06:50:40;;;;;;;14.40;3.57;;;10.50;1.00;;;;;;5070419;28;20198;-72
2021/12/10 06:53:07;;;;;;;13.53;3.57;;;10.50;1.00;;;;;;5070142;28;20674;-72
2021/12/10 06:55:35;;;;;;;12.10;4.93;;;10.50;1.00;;;;;;5070602;28;20259;-73
2021/12/10 06:58:05;;;;;;;9.53;3.20;;;10.50;1.00;;;;;;5070786;28;20202;-74
2021/12/10 07:00:36;;;;;;;15.67;4.30;;;10.40;1.00;;;;;;5070608;28;20301;-74
2021/12/10 07:03:04;;;;;;;9.90;4.10;;;10.30;1.00;;;;;;5070520;28;20241;-74
2021/12/10 07:05:32;;;;;;;12.50;4.73;;;10.30;1.00;;;;;;5070420;28;20237;-74
2021/12/10 07:07:59;;;;;;;14.30;4.93;;;10.30;1.00;;;;;;5069802;28;20260;-75
2021/12/10 07:10:26;;;;;;;26.77;8.60;;;10.40;1.00;;;;;;5069938;28;20624;-74
2021/12/10 07:12:54;;;;;;;17.27;3.67;;;10.40;1.00;;;;;;5069981;28;20251;-76
2021/12/10 07:15:22;;;;;;;17.57;4.30;;;10.50;1.00;;;;;;5073746;28;20206;-73
2021/12/10 07:17:55;;;;;;;15.80;4.87;;;10.50;1.00;;;;;;5086842;28;20261;-73
2021/12/10 07:20:25;;;;;;;17.70;4.13;;;10.40;1.00;;;;;;5081154;28;20262;-75
2021/12/10 07:22:53;;;;;;;15.93;4.47;;;10.40;1.00;;;;;;5087286;28;20207;-72
2021/12/10 07:25:21;;;;;;;12.97;3.40;;;10.50;1.00;;;;;;5091780;28;20328;-73
2021/12/10 07:27:48;;;;;;;15.70;3.90;;;10.40;1.00;;;;;;5093137;28;20687;-70
2021/12/10 07:30:18;;;;;;;18.67;4.43;;;9.80;1.00;;;;;;5093607;28;20213;-76
2021/12/10 07:32:46;;;;;;;15.57;3.03;;;9.20;1.00;;;;;;5092944;28;20205;-72
2021/12/10 07:35:14;;;;;;;11.63;3.67;;;8.90;1.00;;;;;;5089798;28;20209;-74
2021/12/10 07:37:42;;;;;;;7.03;2.03;;;8.90;1.00;;;;;;5092964;28;20263;-70
2021/12/10 07:40:12;;;;;;;9.43;1.67;;;8.60;91.70;;;;;;5093300;28;20217;-78
2021/12/10 07:42:39;;;;;;;9.73;3.30;;;8.50;99.90;;;;;;5093112;28;20636;-74
2021/12/10 07:45:08;;;;;;;6.23;3.30;;;8.40;99.90;;;;;;5093036;28;20654;-72
2021/12/10 07:47:37;;;;;;;9.57;2.30;;;8.50;99.90;;;;;;5093360;28;20681;-70
2021/12/10 07:50:10;;;;;;;8.80;2.10;;;8.50;1.00;;;;;;5093553;28;20673;-71
2021/12/10 07:52:40;;;;;;;6.13;2.00;;;8.60;99.90;;;;;;5092676;28;20270;-71
2021/12/10 07:55:11;;;;;;;8.00;1.93;;;8.50;1.00;;;;;;5092833;28;20688;-72
2021/12/10 07:57:38;;;;;;;9.97;3.97;;;8.60;1.00;;;;;;5092397;28;20676;-75
2021/12/10 08:00:07;;;;;;;7.53;2.53;;;8.60;1.00;;;;;;5093147;28;20263;-74
2021/12/10 08:02:34;;;;;;;8.40;2.47;;;8.70;1.00;;;;;;5093424;28;20202;-72
2021/12/10 08:05:01;;;;;;;9.53;2.53;;;8.70;1.00;;;;;;5092991;28;20240;-76
2021/12/10 08:07:29;;;;;;;13.57;3.27;;;8.80;1.00;;;;;;5092652;28;20213;-72
2021/12/10 08:09:56;;;;;;;8.53;3.00;;;9.00;1.00;;;;;;5092338;28;20668;-71
2021/12/10 08:12:24;;;;;;;12.20;2.83;;;9.00;99.90;;;;;;5087238;28;20205;-73
2021/12/10 08:14:55;;;;;;;9.23;4.07;;;9.10;99.90;;;;;;5078664;28;20669;-75
2021/12/10 08:17:23;;;;;;;13.77;3.57;;;9.10;1.00;;;;;;5080927;28;20267;-74
2021/12/10 08:19:51;;;;;;;22.17;5.47;;;9.20;99.90;;;;;;5081582;28;20202;-75
2021/12/10 08:22:19;;;;;;;13.70;3.83;;;9.30;99.90;;;;;;5081292;28;20626;-76
2021/12/10 08:24:48;;;;;;;13.93;3.33;;;9.40;1.00;;;;;;5080177;28;20770;-74
2021/12/10 08:27:15;;;;;;;20.10;3.50;;;9.40;1.00;;;;;;5072615;28;20209;-75
2021/12/10 08:29:44;;;;;;;15.30;3.90;;;9.40;96.50;;;;;;5072174;28;20210;-74
2021/12/10 08:32:16;;;;;;;15.80;4.73;;;9.40;1.00;;;;;;5072147;28;20266;-72
2021/12/10 08:34:43;;;;;;;18.67;3.70;;;9.50;1.00;;;;;;5071933;28;20237;-73
2021/12/10 08:37:10;;;;;;;15.90;3.47;;;9.60;1.00;;;;;;5072079;28;20662;-75
2021/12/10 08:39:37;;;;;;;21.37;4.33;;;9.60;1.00;;;;;;5075755;28;20202;-74
2021/12/10 08:42:06;;;;;;;13.77;5.07;;;9.60;1.00;;;;;;5089546;28;20266;-74
2021/12/10 08:44:34;;;;;;;10.23;2.50;;;9.60;1.00;;;;;;5092694;28;20209;-74
2021/12/10 08:47:01;;;;;;;13.33;3.63;;;9.70;1.00;;;;;;5088170;28;20206;-72
2021/12/10 08:49:28;;;;;;;21.77;3.70;;;9.70;1.00;;;;;;5086391;28;20670;-73
2021/12/10 08:51:58;;;;;;;17.63;3.60;;;9.70;1.00;;;;;;5090806;28;20216;-72
2021/12/10 08:54:29;;;;;;;8.53;2.93;;;9.70;1.00;;;;;;5082287;28;20267;-75
2021/12/10 08:56:57;;;;;;;8.27;3.67;;;9.50;1.00;;;;;;5089088;28;20209;-74
2021/12/10 08:59:26;;;;;;;14.20;2.40;;;9.40;1.00;;;;;;5081613;28;20738;-76
2021/12/10 09:01:56;;;;;;;14.97;4.00;;;9.30;1.00;;;;;;5083620;28;20210;-75
2021/12/10 09:04:24;;;;;;;14.47;3.97;;;9.40;1.00;;;;;;5088966;28;20705;-75
2021/12/10 09:06:56;;;;;;;12.10;3.53;;;9.50;1.00;;;;;;5085137;28;20289;-75
2021/12/10 09:09:24;;;;;;;15.97;4.20;;;9.50;1.00;;;;;;5083087;28;20205;-74
2021/12/10 09:11:55;;;;;;;18.80;3.43;;;9.50;1.00;;;;;;5082466;28;20206;-72
2021/12/10 09:14:29;;;;;;;17.43;5.00;;;9.50;1.00;;;;;;5081661;28;20264;-75
2021/12/10 09:16:58;;;;;;;18.27;4.50;;;9.40;1.00;;;;;;5088777;28;20205;-74
2021/12/10 09:19:26;;;;;;;14.83;4.40;;;9.20;1.00;;;;;;5070332;28;20681;-74
2021/12/10 09:21:53;;;;;;;17.80;4.67;;;9.20;1.00;;;;;;5073094;28;20232;-75
2021/12/10 09:24:22;;;;;;;10.27;3.57;;;9.10;1.00;;;;;;5078028;28;20695;-73
2021/12/10 09:26:53;;;;;;;19.87;4.87;;;9.10;1.00;;;;;;5081960;28;20769;-75
2021/12/10 09:29:22;;;;;;;8.00;2.93;;;9.00;1.00;;;;;;5085441;28;20592;-74
2021/12/10 09:31:51;;;;;;;13.83;2.37;;;9.00;1.00;;;;;;5080211;28;20217;-76
2021/12/10 09:34:19;;;;;;;11.47;2.00;;;8.90;1.00;;;;;;5081583;28;20197;-76
2021/12/10 09:36:48;;;;;;;5.77;1.70;;;8.80;1.00;;;;;;5073089;28;20206;-75
2021/12/10 09:39:17;;;;;;;13.43;2.77;;;8.70;1.00;;;;;;5087429;28;20213;-74
2021/12/10 09:41:45;;;;;;;8.53;1.83;;;8.80;1.00;;;;;;5082140;28;20216;-73
2021/12/10 09:44:12;;;;;;;10.00;2.87;;;8.90;1.00;;;;;;5088000;28;20209;-74
2021/12/10 09:46:41;;;;;;;5.77;1.83;;;9.00;1.00;;;;;;5082699;28;20286;-74
2021/12/10 09:49:11;;;;;;;9.10;1.73;;;9.10;1.00;;;;;;5088766;28;20594;-73
2021/12/10 09:51:43;;;;;;;8.63;2.13;;;9.20;1.00;;;;;;5090490;28;20202;-74
2021/12/10 09:54:13;;;;;;;5.17;2.03;;;9.30;1.00;;;;;;5088227;28;20742;-75
2021/12/10 09:56:43;;;;;;;2.93;0.93;;;9.40;1.00;;;;;;5090074;28;20669;-74
2021/12/10 09:59:10;;;;;;;6.10;1.47;;;9.40;1.00;;;;;;5079788;28;20237;-74
2021/12/10 10:01:42;;;;;;;4.83;1.83;;;9.50;1.00;;;;;;5081172;28;20271;-74
2021/12/10 10:04:11;;;;;;;6.37;1.43;;;9.50;1.00;;;;;;5086134;28;20224;-75
2021/12/10 10:06:44;;;;;;;4.50;1.63;;;9.40;1.00;;;;;;5085814;28;20230;-73
2021/12/10 10:09:13;;;;;;;6.60;2.33;;;9.30;1.00;;;;;;5075329;28;20198;-74
2021/12/10 10:11:42;;;;;;;7.60;1.70;;;9.20;1.00;;;;;;5080438;28;20202;-74
2021/12/10 10:14:10;;;;;;;2.97;1.60;;;9.30;1.00;;;;;;5084807;28;20201;-74
2021/12/10 10:16:43;;;;;;;4.97;1.30;;;9.30;1.00;;;;;;5081933;28;20255;-74
2021/12/10 10:19:13;;;;;;;3.23;1.10;;;9.20;1.00;;;;;;5090332;28;20689;-71
2021/12/10 10:21:43;;;;;;;6.70;2.07;;;9.20;1.00;;;;;;5075227;28;20202;-74
2021/12/10 10:24:12;;;;;;;8.17;1.30;;;9.20;1.00;;;;;;5088805;28;20206;-70
2021/12/10 10:26:46;;;;;;;9.20;1.77;;;9.00;1.00;;;;;;5087420;28;20260;-72
2021/12/10 10:29:18;;;;;;;4.60;1.20;;;8.80;1.00;;;;;;5077828;28;20206;-73
2021/12/10 10:31:49;;;;;;;4.70;1.10;;;8.50;1.00;;;;;;5089667;28;20270;-73
2021/12/10 10:34:18;;;;;;;5.83;1.30;;;8.40;1.00;;;;;;5087600;28;20296;-73
2021/12/10 10:36:46;;;;;;;1.50;0.80;;;8.50;1.00;;;;;;5090095;28;20217;-73
2021/12/10 10:39:18;;;;;;;4.73;1.43;;;8.50;1.00;;;;;;5090313;28;20737;-74
2021/12/10 10:41:47;;;;;;;3.53;1.00;;;8.40;1.00;;;;;;5089255;28;20263;-72
2021/12/10 10:44:17;;;;;;;4.70;1.40;;;8.40;1.00;;;;;;5089277;28;20311;-74
2021/12/10 10:46:44;;;;;;;3.77;1.03;;;8.30;1.00;;;;;;5074395;28;20233;-74
2021/12/10 10:49:33;;;;;;;9.97;2.13;;;8.40;1.00;;;;;;5076966;28;20632;-75
2021/12/10 10:52:14;;;;;;;6.53;1.80;;;8.40;1.00;;;;;;5082336;28;20209;-76
2021/12/10 10:54:42;;;;;;;7.70;2.00;;;8.40;1.00;;;;;;5079457;28;20589;-76
2021/12/10 10:57:14;;;;;;;5.77;2.00;;;8.30;1.00;;;;;;5093118;28;20210;-76
2021/12/10 10:59:42;;;;;;;2.60;1.23;;;8.40;1.00;;;;;;5080130;28;20731;-75
2021/12/10 11:02:11;;;;;;;5.20;1.70;;;8.30;1.00;;;;;;5091924;28;20209;-73
2021/12/10 11:04:42;;;;;;;5.10;1.27;;;8.20;1.00;;;;;;5088502;28;20209;-74
2021/12/10 11:07:14;;;;;;;35.60;18.27;;;8.10;1.00;;;;;;5092608;28;20294;-75
2021/12/10 11:09:48;;;;;;;12.37;5.00;;;8.10;1.00;;;;;;5093354;28;20201;-75
2021/12/10 11:12:20;;;;;;;8.77;1.83;;;8.20;1.00;;;;;;5093494;28;20255;-74
2021/12/10 11:14:50;;;;;;;6.30;2.47;;;8.30;1.00;;;;;;5092421;28;20202;-72
2021/12/10 11:17:21;;;;;;;7.73;2.80;;;8.30;1.00;;;;;;5093066;28;20201;-76
2021/12/10 11:19:55;;;;;;;7.17;2.17;;;8.30;1.00;;;;;;5082644;28;20238;-77
2021/12/10 11:22:24;;;;;;;8.63;1.50;;;8.30;1.00;;;;;;5095427;28;20201;-76
2021/12/10 11:24:55;;;;;;;6.33;1.90;;;8.20;1.00;;;;;;5082485;28;20206;-77
2021/12/10 11:27:26;;;;;;;6.57;2.37;;;8.20;1.00;;;;;;5088463;28;20237;-74
2021/12/10 11:29:56;;;;;;;8.97;3.30;;;8.40;1.00;;;;;;5082638;28;20251;-73
2021/12/10 11:32:33;;;;;;;4.83;1.70;;;8.50;1.00;;;;;;5080456;28;20239;-75
2021/12/10 11:35:09;;;;;;;6.43;2.13;;;8.60;1.00;;;;;;5090028;28;20642;-75
2021/12/10 11:37:56;;;;;;;8.10;3.20;;;8.60;1.00;;;;;;5080418;28;20205;-76
2021/12/10 11:40:45;;;;;;;5.30;2.10;;;8.80;1.00;;;;;;5082121;28;20624;-76
2021/12/10 11:43:20;;;;;;;6.53;1.20;;;8.80;1.00;;;;;;5078034;28;20209;-74
2021/12/10 11:46:03;;;;;;;3.70;1.47;;;8.80;1.00;;;;;;5084949;28;20240;-75
2021/12/10 11:48:31;;;;;;;3.33;1.57;;;8.80;1.00;;;;;;5093319;28;20213;-74
2021/12/10 11:51:08;;;;;;;3.93;1.33;;;8.90;1.00;;;;;;5092068;28;20202;-75
2021/12/10 11:53:40;;;;;;;5.60;1.50;;;9.00;1.00;;;;;;5093487;28;20247;-75
2021/12/10 11:56:11;;;;;;;7.63;0.90;;;8.90;1.00;;;;;;5086345;28;20258;-74
2021/12/10 11:58:40;;;;;;;4.10;0.97;;;8.80;1.00;;;;;;5092614;28;20669;-76
2021/12/10 12:01:16;;;;;;;5.70;2.83;;;8.70;1.00;;;;;;5092091;28;20259;-74
2021/12/10 12:03:43;;;;;;;2.63;1.43;;;8.50;1.00;;;;;;5088903;28;20266;-74
2021/12/10 12:06:17;;;;;;;4.83;1.30;;;8.50;1.00;;;;;;5089908;28;20316;-75
2021/12/10 12:08:44;;;;;;;4.80;2.20;;;8.40;1.00;;;;;;5092155;28;20239;-74
2021/12/10 12:11:11;;;;;;;6.73;1.53;;;8.30;1.00;;;;;;5092074;28;20206;-74
2021/12/10 12:13:42;;;;;;;6.47;1.30;;;8.20;1.00;;;;;;5092458;28;20680;-74
2021/12/10 12:16:13;;;;;;;3.83;1.47;;;8.20;1.00;;;;;;5092945;28;20216;-75
2021/12/10 12:18:43;;;;;;;4.10;2.27;;;8.20;1.00;;;;;;5090410;28;20201;-74
2021/12/10 12:27:12;;;;;;;2.10;1.00;;;8.20;1.00;;;;;;5092142;28;20750;-75
2021/12/10 12:29:41;;;;;;;5.23;0.97;;;8.30;1.00;;;;;;5092606;28;20202;-75
2021/12/10 12:32:11;;;;;;;5.40;1.73;;;8.30;1.00;;;;;;5092898;28;20210;-75
2021/12/10 12:34:38;;;;;;;5.57;1.63;;;8.30;1.00;;;;;;5092443;28;20277;-75
2021/12/10 12:37:09;;;;;;;4.57;1.53;;;8.30;1.00;;;;;;5092860;28;20716;-74
2021/12/10 12:39:39;;;;;;;1.77;0.80;;;8.20;1.00;;;;;;5090393;28;20205;-74
2021/12/10 12:42:09;;;;;;;7.17;2.27;;;8.10;1.00;;;;;;5078714;28;20214;-75
2021/12/10 12:44:41;;;;;;;3.83;1.20;;;8.10;1.00;;;;;;5087916;28;20206;-74
2021/12/10 12:47:13;;;;;;;3.90;1.30;;;8.10;1.00;;;;;;5085153;28;20221;-74
2021/12/10 12:50:04;;;;;;;5.93;1.20;;;8.00;1.00;;;;;;5092183;28;20205;-74
2021/12/10 12:52:42;;;;;;;7.30;1.10;;;8.00;1.00;;;;;;5091859;28;20217;-75
2021/12/10 12:55:30;;;;;;;3.47;1.37;;;7.90;1.00;;;;;;5092450;28;20214;-79
2021/12/10 12:58:05;;;;;;;5.03;0.60;;;7.90;1.00;;;;;;5087682;28;20633;-79
2021/12/10 13:00:38;;;;;;;2.90;0.90;;;7.90;1.00;;;;;;5071850;28;20214;-77
2021/12/10 13:03:09;;;;;;;5.13;3.53;;;7.90;1.00;;;;;;5090913;28;20201;-79
2021/12/10 13:05:42;;;;;;;2.87;0.70;;;7.80;1.00;;;;;;5091545;28;20205;-78
2021/12/10 13:08:15;;;;;;;3.80;1.47;;;7.80;1.00;;;;;;5085657;28;20328;-80
2021/12/10 13:10:49;;;;;;;5.03;1.30;;;7.90;1.00;;;;;;5084664;28;20206;-79
2021/12/10 13:13:25;;;;;;;6.00;0.80;;;8.20;1.00;;;;;;5081604;28;20276;-78
2021/12/10 13:15:53;;;;;;;1.13;0.90;;;8.30;1.00;;;;;;5086619;28;20207;-79
2021/12/10 13:18:22;;;;;;;3.00;1.93;;;8.40;1.00;;;;;;5091397;28;20685;-79
2021/12/10 13:20:52;;;;;;;1.50;0.83;;;8.50;1.00;;;;;;5091223;28;20224;-78
2021/12/10 13:23:24;;;;;;;5.60;1.03;;;8.50;1.00;;;;;;5091425;28;20662;-78
2021/12/10 13:25:55;;;;;;;4.03;0.90;;;8.50;1.00;;;;;;5085127;28;20201;-79